Time;durP1;ratioP1;P1;durP2;ratioP2;P2;SDS_P1;SDS_P2;PMS_P1;PMS_P2;Temp;Humidity;BMP_temperature;BMP_pressure;BME280_temperature;BME280_humidity;BME280_pressure;Samples;Min_cycle;Max_cycle;Signal;HPM_P1;HPM_P2
2023/09/13 00:01:08;;;;;;;9.30;8.40;;;;;;;20.21;91.52;100488.25;5002906;28;20413;-79
2023/09/13 00:03:38;;;;;;;8.53;7.67;;;;;;;20.28;90.80;100486.03;5000331;28;20456;-79
2023/09/13 00:06:07;;;;;;;8.83;8.03;;;;;;;20.26;91.32;100485.50;4996649;28;21059;-82
2023/09/13 00:08:37;;;;;;;9.10;8.20;;;;;;;20.26;91.08;100484.69;4997210;28;20490;-80
2023/09/13 00:11:07;;;;;;;10.43;8.93;;;;;;;20.29;91.31;100492.34;5002257;28;20432;-81
2023/09/13 00:13:36;;;;;;;9.17;8.27;;;;;;;20.27;91.37;100498.16;4995292;28;20435;-79
2023/09/13 00:16:05;;;;;;;15.63;8.20;;;;;;;20.24;91.70;100498.69;4997542;28;20949;-81
2023/09/13 00:18:34;;;;;;;10.10;9.20;;;;;;;20.26;91.93;100493.75;5004754;28;20443;-81
2023/09/13 00:21:03;;;;;;;10.60;8.80;;;;;;;20.32;91.27;100500.94;4996436;28;21040;-78
2023/09/13 00:23:32;;;;;;;10.97;9.20;;;;;;;20.33;91.44;100508.03;5009263;28;20442;-77
2023/09/13 00:26:03;;;;;;;10.53;9.43;;;;;;;20.34;91.62;100515.19;5016376;28;20419;-78
2023/09/13 00:28:34;;;;;;;11.70;9.67;;;;;;;20.43;91.06;100511.91;5017824;28;20445;-78
2023/09/13 00:31:03;;;;;;;11.40;10.27;;;;;;;20.34;91.56;100509.69;5020591;28;20510;-79
2023/09/13 00:33:33;;;;;;;12.03;10.83;;;;;;;20.37;91.73;100506.41;5011256;28;20408;-77
2023/09/13 00:36:02;;;;;;;13.03;10.47;;;;;;;20.37;91.75;100497.34;5001862;28;20412;-80
2023/09/13 00:38:31;;;;;;;11.07;9.93;;;;;;;20.43;91.24;100500.91;4999278;28;20433;-81
2023/09/13 00:41:02;;;;;;;15.13;11.90;;;;;;;20.43;91.08;100495.41;4992218;28;20815;-81
2023/09/13 00:43:31;;;;;;;13.83;9.77;;;;;;;20.43;90.93;100500.91;4992836;28;20784;-81
2023/09/13 00:46:00;;;;;;;10.17;9.17;;;;;;;20.41;91.20;100497.59;4998910;28;20775;-79
2023/09/13 00:48:31;;;;;;;10.03;9.13;;;;;;;20.37;91.50;100500.09;4997928;28;20436;-82
2023/09/13 00:51:00;;;;;;;12.27;10.73;;;;;;;20.32;91.64;100502.84;5015677;28;20441;-80
2023/09/13 00:53:32;;;;;;;12.27;10.27;;;;;;;20.29;91.95;100506.91;4992259;28;20435;-79
2023/09/13 00:56:03;;;;;;;10.70;9.70;;;;;;;20.25;92.16;100511.31;5000169;28;20422;-81
2023/09/13 00:58:33;;;;;;;10.53;9.60;;;;;;;20.33;92.12;100508.03;5006749;28;20413;-79
2023/09/13 01:01:03;;;;;;;12.30;11.00;;;;;;;20.34;91.56;100512.44;5008586;28;20442;-80
2023/09/13 01:03:33;;;;;;;13.10;10.30;;;;;;;20.34;91.83;100506.94;5008831;28;20406;-80
2023/09/13 01:06:02;;;;;;;10.87;9.77;;;;;;;20.38;91.68;100502.53;4998718;28;20435;-79
2023/09/13 01:08:33;;;;;;;12.70;11.03;;;;;;;20.31;91.67;100496.53;4994301;28;20437;-80
2023/09/13 01:11:05;;;;;;;10.87;9.80;;;;;;;20.29;91.83;100495.94;5003514;28;20437;-79
2023/09/13 01:13:35;;;;;;;10.47;9.40;;;;;;;20.25;92.07;100496.75;5002360;28;20428;-79
2023/09/13 01:16:14;;;;;;;12.40;11.40;;;;;;;20.27;92.09;100503.63;5019939;28;20392;-80
2023/09/13 01:18:51;;;;;;;9.93;8.93;;;;;;;20.27;91.18;100498.16;5010299;28;20396;-79
2023/09/13 01:21:41;;;;;;;13.07;11.27;;;;;;;20.30;90.69;100497.63;5014430;28;20406;-79
2023/09/13 01:24:52;;;;;;;13.07;9.30;;;;;;;20.37;89.80;100491.84;5007276;28;20423;-81
2023/09/13 01:27:48;;;;;;;11.23;10.13;;;;;;;20.45;88.93;100477.53;4950258;29;20506;-81
2023/09/13 01:30:23;;;;;;;8.87;8.07;;;;;;;20.49;87.87;100466.81;5010917;28;20425;-80
2023/09/13 01:32:53;;;;;;;12.37;7.97;;;;;;;20.44;87.36;100466.81;5013967;28;20411;-81
2023/09/13 01:35:22;;;;;;;11.30;9.43;;;;;;;20.50;86.58;100455.53;5010247;28;20421;-83
2023/09/13 01:37:51;;;;;;;10.80;9.70;;;;;;;20.53;86.26;100457.72;5018527;28;20435;-83
2023/09/13 01:40:22;;;;;;;12.87;10.80;;;;;;;20.52;86.10;100453.34;5022950;28;20453;-81
2023/09/13 01:42:53;;;;;;;11.67;8.50;;;;;;;20.49;86.78;100455.81;4994138;28;20412;-81
2023/09/13 01:45:25;;;;;;;10.37;9.47;;;;;;;20.52;87.23;100458.03;5015505;28;20434;-83
2023/09/13 01:47:55;;;;;;;12.53;11.30;;;;;;;20.47;88.15;100460.78;5019150;28;20450;-82
2023/09/13 01:50:24;;;;;;;20.63;11.17;;;;;;;20.50;88.65;100449.22;5013594;28;20405;-82
2023/09/13 01:52:54;;;;;;;10.47;9.37;;;;;;;20.42;89.91;100450.63;5018358;28;20411;-84
2023/09/13 01:56:10;;;;;;;10.13;9.13;;;;;;;20.37;90.48;100459.69;5015064;28;20435;-81
2023/09/13 01:59:40;;;;;;;11.83;10.60;;;;;;;20.52;90.36;100687.00;5008258;28;20463;-82
2023/09/13 02:02:12;;;;;;;11.80;9.50;;;;;;;20.56;89.33;100699.09;5009817;28;20397;-83
2023/09/13 02:04:41;;;;;;;12.40;7.67;;;;;;;20.51;90.00;100721.06;5016281;28;20388;-81
2023/09/13 02:14:42;;;;;;;14.83;9.40;;;;;;;18.73;100.00;100712.06;5016882;28;20667;-81
2023/09/13 02:17:12;;;;;;;12.40;8.40;;;;;;;18.49;100.00;100682.19;5013579;28;20462;-80
2023/09/13 02:19:41;;;;;;;9.53;8.53;;;;;;;18.47;100.00;100635.06;5025701;28;20408;-83
2023/09/13 02:22:11;;;;;;;11.07;7.37;;;;;;;18.46;100.00;100624.34;5015287;28;20390;-82
2023/09/13 02:28:56;;;;;;;12.87;7.40;;;;;;;18.44;100.00;100572.56;5014252;28;20450;-80
2023/09/13 02:31:27;;;;;;;11.17;7.73;;;;;;;18.37;100.00;100569.22;5020660;28;20526;-81
2023/09/13 02:33:57;;;;;;;9.70;6.73;;;;;;;18.25;100.00;100563.06;5030581;28;20446;-81
2023/09/13 02:36:27;;;;;;;9.50;6.63;;;;;;;18.29;100.00;100550.53;5009473;28;20427;-82
2023/09/13 02:38:59;;;;;;;9.00;7.43;;;;;;;18.22;100.00;100547.16;5014875;28;20426;-81
2023/09/13 02:41:29;;;;;;;12.30;7.37;;;;;;;18.29;100.00;100534.09;5006831;28;20415;-79
2023/09/13 02:43:59;;;;;;;9.43;6.60;;;;;;;18.21;100.00;100534.56;5022172;28;20439;-81
2023/09/13 02:46:28;;;;;;;10.33;7.23;;;;;;;18.20;100.00;100516.50;5018570;28;20431;-80
2023/09/13 02:48:58;;;;;;;6.80;6.03;;;;;;;18.25;100.00;100491.84;5020592;28;20455;-81
2023/09/13 02:51:28;;;;;;;8.30;7.13;;;;;;;18.26;100.00;100488.03;5018125;28;20404;-79
2023/09/13 02:53:57;;;;;;;11.37;7.90;;;;;;;18.21;100.00;100475.13;5003342;28;21015;-79
2023/09/13 02:56:26;;;;;;;9.93;8.13;;;;;;;18.16;100.00;100461.41;4991743;28;20464;-80
2023/09/13 02:58:55;;;;;;;11.30;8.10;;;;;;;18.13;100.00;100450.97;4990031;28;20933;-80
2023/09/13 03:01:25;;;;;;;11.57;7.07;;;;;;;18.11;100.00;100436.72;4994687;28;20459;-80
2023/09/13 03:03:55;;;;;;;10.43;7.30;;;;;;;18.15;100.00;100420.59;5008101;28;20443;-79
2023/09/13 03:06:25;;;;;;;11.63;7.13;;;;;;;18.16;100.00;100400.31;4991010;28;20461;-79
2023/09/13 03:08:56;;;;;;;8.57;6.87;;;;;;;18.07;100.00;100399.16;5017460;28;20544;-80
2023/09/13 03:11:25;;;;;;;11.40;7.40;;;;;;;18.03;100.00;100389.84;5012116;28;20417;-81
2023/09/13 03:13:54;;;;;;;8.00;5.60;;;;;;;18.03;100.00;100376.97;4987957;28;20429;-79
2023/09/13 03:16:24;;;;;;;7.30;6.60;;;;;;;17.98;100.00;100376.13;4996998;28;20435;-80
2023/09/13 03:18:55;;;;;;;9.00;7.13;;;;;;;17.94;100.00;100383.22;4993407;28;20410;-80
2023/09/13 03:21:31;;;;;;;9.53;7.00;;;;;;;18.02;100.00;100390.91;4978784;28;20540;-80
2023/09/13 03:24:00;;;;;;;8.73;7.07;;;;;;;17.98;100.00;100409.78;4993810;28;20523;-80
2023/09/13 03:26:31;;;;;;;14.60;7.40;;;;;;;18.06;100.00;100411.19;4984760;28;20437;-80
2023/09/13 03:29:00;;;;;;;11.20;8.30;;;;;;;18.10;100.00;100406.88;5005621;28;20523;-79
2023/09/13 03:31:31;;;;;;;9.63;7.87;;;;;;;18.06;100.00;100401.09;4996926;28;20512;-79
2023/09/13 03:34:05;;;;;;;11.40;7.00;;;;;;;18.05;100.00;100415.88;5001940;28;20442;-79
2023/09/13 03:36:37;;;;;;;9.83;8.33;;;;;;;18.10;100.00;100401.41;5010534;28;20440;-79
2023/09/13 03:39:07;;;;;;;9.33;7.97;;;;;;;18.14;100.00;100392.41;4992390;28;20544;-79
2023/09/13 03:41:36;;;;;;;12.37;8.13;;;;;;;18.18;100.00;100392.69;4993794;28;20438;-79
2023/09/13 03:44:07;;;;;;;9.90;8.07;;;;;;;18.15;100.00;100382.28;4985206;28;20457;-79
2023/09/13 03:46:36;;;;;;;11.83;8.47;;;;;;;18.11;100.00;100381.13;4999002;28;20445;-82
2023/09/13 03:49:06;;;;;;;9.57;8.13;;;;;;;18.10;100.00;100384.97;4995608;28;20437;-81
2023/09/13 03:51:37;;;;;;;9.13;8.23;;;;;;;18.06;100.00;100379.19;5011394;28;20428;-80
2023/09/13 03:54:07;;;;;;;14.60;9.17;;;;;;;17.96;100.00;100386.53;4998896;28;20550;-80
2023/09/13 03:56:37;;;;;;;13.27;8.37;;;;;;;17.97;100.00;100372.53;5007132;28;20496;-80
2023/09/13 03:59:06;;;;;;;9.93;8.93;;;;;;;17.97;100.00;100374.47;5003000;28;20454;-81
2023/09/13 04:01:35;;;;;;;12.33;9.10;;;;;;;17.94;100.00;100364.03;5004055;28;20497;-80
2023/09/13 04:04:05;;;;;;;11.60;9.63;;;;;;;17.98;100.00;100348.75;5001470;28;20498;-81
2023/09/13 04:06:36;;;;;;;14.47;9.80;;;;;;;17.97;100.00;100347.91;5005507;28;20513;-80
2023/09/13 04:09:06;;;;;;;10.13;9.23;;;;;;;17.96;100.00;100350.94;5004806;28;20451;-81
2023/09/13 04:11:35;;;;;;;11.17;8.97;;;;;;;18.04;100.00;100350.44;5001645;28;20457;-80
2023/09/13 04:14:07;;;;;;;12.87;10.57;;;;;;;18.04;100.00;100347.69;4989522;28;20503;-78
2023/09/13 04:16:36;;;;;;;10.30;8.70;;;;;;;18.02;100.00;100358.06;4994927;28;20460;-79
2023/09/13 04:19:05;;;;;;;12.43;11.13;;;;;;;18.02;100.00;100360.81;4993797;28;21151;-80
2023/09/13 04:21:36;;;;;;;10.23;9.23;;;;;;;17.95;100.00;100355.56;4993206;28;20477;-78
2023/09/13 04:24:06;;;;;;;11.47;9.20;;;;;;;17.87;100.00;100358.78;5013215;28;20432;-79
2023/09/13 04:26:36;;;;;;;10.97;9.73;;;;;;;17.90;100.00;100352.81;5000819;28;20431;-79
2023/09/13 04:29:06;;;;;;;12.40;10.50;;;;;;;17.87;100.00;100360.69;4997748;28;20802;-79
2023/09/13 04:31:36;;;;;;;11.43;9.47;;;;;;;17.95;100.00;100366.53;5004142;28;20856;-79
2023/09/13 04:34:05;;;;;;;11.50;10.23;;;;;;;17.89;100.00;100362.09;5010215;28;20461;-79
2023/09/13 04:36:39;;;;;;;12.70;10.23;;;;;;;17.89;100.00;100362.09;4986928;28;20746;-79
2023/09/13 04:39:09;;;;;;;12.17;10.87;;;;;;;17.97;100.00;100368.97;5003632;28;20695;-80
2023/09/13 04:41:39;;;;;;;12.83;11.53;;;;;;;18.04;100.00;100377.81;5007942;28;20445;-79
2023/09/13 04:44:08;;;;;;;12.03;10.93;;;;;;;18.06;100.00;100383.81;4990891;28;20420;-80
2023/09/13 04:46:37;;;;;;;13.67;10.83;;;;;;;18.11;100.00;100381.13;4999429;28;20996;-80
2023/09/13 04:49:07;;;;;;;12.23;10.93;;;;;;;18.16;100.00;100383.88;5005716;28;20506;-80
2023/09/13 04:51:36;;;;;;;12.47;11.07;;;;;;;18.17;100.00;100385.56;4997196;28;20489;-79
2023/09/13 04:54:10;;;;;;;12.10;10.80;;;;;;;18.16;100.00;100389.38;5007932;28;20469;-80
2023/09/13 04:56:40;;;;;;;13.70;11.57;;;;;;;18.15;100.00;100399.50;4992978;28;20443;-80
2023/09/13 04:59:09;;;;;;;13.93;11.30;;;;;;;18.16;100.00;100411.28;4991908;28;20454;-79
2023/09/13 05:01:39;;;;;;;12.23;11.03;;;;;;;18.18;100.00;100411.84;4989502;28;20472;-82
2023/09/13 05:04:09;;;;;;;11.37;10.27;;;;;;;18.10;100.00;100406.88;4997190;28;20474;-79
2023/09/13 05:06:38;;;;;;;13.73;12.00;;;;;;;18.10;100.00;100412.34;4998002;28;20427;-79
2023/09/13 05:09:09;;;;;;;17.57;12.67;;;;;;;17.99;100.00;100411.44;4996865;28;20488;-79
2023/09/13 05:11:38;;;;;;;16.87;14.80;;;;;;;18.00;100.00;100420.50;4998422;28;20883;-80
2023/09/13 05:14:12;;;;;;;20.60;14.40;;;;;;;18.08;100.00;100415.34;5008036;28;20411;-81
2023/09/13 05:16:42;;;;;;;20.20;15.93;;;;;;;18.06;100.00;100417.50;5002789;28;20475;-79
2023/09/13 05:19:11;;;;;;;23.80;18.47;;;;;;;18.11;100.00;100420.28;5002350;28;20510;-79
2023/09/13 05:21:41;;;;;;;24.30;17.40;;;;;;;18.29;100.00;100419.06;5003829;28;20422;-79
2023/09/13 05:24:12;;;;;;;16.93;15.13;;;;;;;18.37;100.00;100423.19;5011711;28;20413;-80
2023/09/13 05:26:41;;;;;;;17.93;16.30;;;;;;;18.27;100.00;100428.59;4998441;28;20456;-80
2023/09/13 05:29:10;;;;;;;18.77;16.53;;;;;;;18.24;100.00;100435.44;5006003;28;20461;-80
2023/09/13 05:31:40;;;;;;;23.73;16.33;;;;;;;18.36;100.00;100435.25;5010693;28;20462;-79
2023/09/13 05:34:09;;;;;;;23.63;21.13;;;;;;;18.42;100.00;100437.75;5007840;28;20409;-79
2023/09/13 05:36:38;;;;;;;22.13;20.00;;;;;;;18.50;100.00;100444.63;4998740;28;20477;-80
2023/09/13 05:39:08;;;;;;;27.00;21.60;;;;;;;18.59;100.00;100445.81;5008061;28;20437;-79
2023/09/13 05:41:38;;;;;;;30.87;23.13;;;;;;;18.63;100.00;100445.03;5004507;28;20397;-79
2023/09/13 05:44:09;;;;;;;24.93;22.47;;;;;;;18.75;100.00;100446.72;5005641;28;20451;-80
2023/09/13 05:46:39;;;;;;;25.37;23.07;;;;;;;18.96;100.00;100443.00;5008946;28;20469;-82
2023/09/13 05:49:08;;;;;;;23.60;21.40;;;;;;;19.03;100.00;100447.13;5029768;28;20514;-82
2023/09/13 05:51:37;;;;;;;26.37;23.33;;;;;;;19.12;100.00;100447.44;5004319;28;20491;-78
2023/09/13 05:54:06;;;;;;;26.07;23.00;;;;;;;19.24;100.00;100447.19;4992901;28;20435;-80
2023/09/13 05:56:37;;;;;;;25.10;22.60;;;;;;;19.24;100.00;100438.97;5009057;28;20453;-81
2023/09/13 05:59:07;;;;;;;27.33;24.40;;;;;;;19.26;100.00;100445.00;4993503;28;20497;-81
2023/09/13 06:01:37;;;;;;;27.27;23.90;;;;;;;19.37;100.00;100439.28;5005020;28;20431;-81
2023/09/13 06:04:07;;;;;;;25.47;22.87;;;;;;;19.33;100.00;100446.41;5002084;28;20519;-81
2023/09/13 06:06:37;;;;;;;24.87;22.47;;;;;;;19.56;100.00;100438.81;5012523;28;20462;-81
2023/09/13 06:09:09;;;;;;;25.33;22.80;;;;;;;19.73;100.00;100431.13;5001579;28;20786;-80
2023/09/13 06:11:40;;;;;;;25.13;22.70;;;;;;;19.82;100.00;100434.97;5000211;28;20447;-80
2023/09/13 06:14:10;;;;;;;25.03;22.17;;;;;;;19.86;100.00;100427.81;4998128;28;20451;-80
2023/09/13 06:16:40;;;;;;;24.33;22.07;;;;;;;19.88;100.00;100423.72;5004539;28;20455;-81
2023/09/13 06:19:09;;;;;;;22.63;20.37;;;;;;;19.92;100.00;100441.28;5002896;28;20437;-83
2023/09/13 06:21:42;;;;;;;24.73;22.60;;;;;;;20.03;100.00;100431.13;5005699;28;20459;-80
2023/09/13 06:24:11;;;;;;;26.67;23.13;;;;;;;20.12;100.00;100428.66;4998080;28;20433;-80
2023/09/13 06:26:42;;;;;;;26.33;22.97;;;;;;;20.17;100.00;100429.47;5003415;28;20473;-79
2023/09/13 06:29:12;;;;;;;24.47;21.83;;;;;;;20.24;100.00;100429.16;5004653;28;20436;-81
2023/09/13 06:31:42;;;;;;;21.33;19.20;;;;;;;20.36;100.00;100435.25;5003329;28;20447;-80
2023/09/13 06:34:31;;;;;;;23.60;20.00;;;;;;;20.51;100.00;100437.13;5004898;28;20432;-80
2023/09/13 06:37:02;;;;;;;23.00;20.73;;;;;;;20.57;100.00;100441.53;5008798;28;20466;-79
2023/09/13 06:39:34;;;;;;;19.87;17.87;;;;;;;20.64;100.00;100442.84;5016324;28;20465;-81
2023/09/13 06:42:06;;;;;;;21.67;19.70;;;;;;;20.72;100.00;100442.28;5013910;28;20453;-80
2023/09/13 06:44:56;;;;;;;18.87;17.17;;;;;;;20.72;100.00;100452.47;4998300;28;20463;-81
2023/09/13 06:47:45;;;;;;;19.23;17.53;;;;;;;20.77;100.00;100452.44;4996387;28;20436;-80
2023/09/13 06:50:15;;;;;;;18.90;17.03;;;;;;;20.81;100.00;100459.03;5004373;28;20405;-79
2023/09/13 06:52:46;;;;;;;18.93;17.20;;;;;;;20.68;100.00;100459.59;5021453;28;20431;-81
2023/09/13 06:55:37;;;;;;;19.30;17.33;;;;;;;20.58;100.00;100465.13;5010254;28;20516;-80
2023/09/13 06:58:10;;;;;;;20.97;17.83;;;;;;;20.63;100.00;100473.38;5008789;28;20485;-80
2023/09/13 07:00:42;;;;;;;23.23;16.50;;;;;;;20.20;100.00;100481.09;5005333;28;20419;-79
2023/09/13 07:03:32;;;;;;;19.17;17.00;;;;;;;20.02;100.00;100481.66;5012473;28;20441;-82
2023/09/13 07:06:15;;;;;;;18.70;16.83;;;;;;;19.98;100.00;100480.56;5021942;28;20450;-80
2023/09/13 07:08:44;;;;;;;17.80;14.77;;;;;;;19.86;100.00;100477.25;5018372;28;20409;-80
2023/09/13 07:11:16;;;;;;;17.47;14.30;;;;;;;19.68;100.00;100488.75;5009269;28;20417;-82
2023/09/13 07:13:47;;;;;;;18.60;16.93;;;;;;;19.81;100.00;100485.47;5003401;28;20543;-80
2023/09/13 07:16:17;;;;;;;16.13;14.60;;;;;;;19.95;100.00;100489.34;4997523;28;20436;-80
2023/09/13 07:18:46;;;;;;;18.47;16.60;;;;;;;20.18;100.00;100488.81;5004185;28;20412;-80
2023/09/13 07:21:16;;;;;;;17.17;15.10;;;;;;;20.38;100.00;100494.31;5010301;28;20432;-80
2023/09/13 07:23:49;;;;;;;14.77;13.23;;;;;;;20.60;100.00;100484.94;5018441;28;20590;-82
2023/09/13 07:26:18;;;;;;;12.63;11.47;;;;;;;20.55;100.00;100494.03;5016484;28;20446;-81
2023/09/13 07:28:49;;;;;;;14.77;13.20;;;;;;;20.45;100.00;100490.44;5024355;28;20403;-84
2023/09/13 07:31:18;;;;;;;15.73;14.23;;;;;;;20.44;100.00;100488.81;5018589;28;20440;-79
2023/09/13 07:33:47;;;;;;;14.57;13.17;;;;;;;20.33;100.00;100497.06;5000831;28;20427;-80
2023/09/13 07:36:17;;;;;;;13.77;12.47;;;;;;;20.30;100.00;100497.63;4990358;28;20466;-80
2023/09/13 07:38:46;;;;;;;13.90;12.60;;;;;;;20.25;100.00;100505.00;4997842;28;20409;-81
2023/09/13 07:41:16;;;;;;;14.20;12.77;;;;;;;20.30;100.00;100508.59;5000840;28;20415;-81
2023/09/13 07:43:45;;;;;;;14.77;13.37;;;;;;;20.19;100.00;100506.91;5001297;28;20396;-81
2023/09/13 07:46:16;;;;;;;12.33;11.03;;;;;;;20.18;100.00;100510.78;5002421;28;20448;-80
2023/09/13 07:48:45;;;;;;;11.40;10.40;;;;;;;20.05;100.00;100505.00;4995276;28;20894;-80
2023/09/13 07:51:15;;;;;;;11.90;10.90;;;;;;;20.05;100.00;100502.25;4994523;28;20524;-81
2023/09/13 07:53:45;;;;;;;14.13;12.73;;;;;;;20.09;100.00;100506.91;4990170;28;20434;-79
2023/09/13 07:56:15;;;;;;;11.97;10.97;;;;;;;20.07;100.00;100509.13;5004047;28;20448;-80
2023/09/13 07:58:44;;;;;;;12.40;11.20;;;;;;;20.15;100.00;100516.81;4997658;28;20456;-80
2023/09/13 08:01:15;;;;;;;11.77;10.60;;;;;;;20.19;100.00;100523.41;4993369;28;20423;-79
2023/09/13 08:03:47;;;;;;;14.53;11.00;;;;;;;20.53;100.00;100520.94;4994106;28;20861;-79
2023/09/13 08:07:08;;;;;;;12.43;10.37;;;;;;;20.85;100.00;100517.06;5001089;28;20481;-78
2023/09/13 08:10:27;;;;;;;11.10;9.80;;;;;;;21.15;99.68;100523.31;4944242;29;20541;-80
2023/09/13 08:12:56;;;;;;;12.43;11.30;;;;;;;21.15;98.92;100526.06;4945168;29;20477;-80
2023/09/13 08:15:25;;;;;;;11.67;10.70;;;;;;;20.90;98.66;100531.63;4942814;29;20431;-79
2023/09/13 08:18:16;;;;;;;10.70;9.80;;;;;;;20.97;99.92;100540.38;4948599;29;20438;-80
2023/09/13 08:20:45;;;;;;;11.07;9.60;;;;;;;21.09;100.00;100529.91;4943791;29;20430;-80
2023/09/13 08:23:16;;;;;;;12.57;11.37;;;;;;;21.05;99.51;100539.81;4944339;29;20855;-80
2023/09/13 08:25:46;;;;;;;12.60;11.40;;;;;;;20.82;100.00;100537.66;4947424;28;20437;-80
2023/09/13 08:28:16;;;;;;;10.33;9.33;;;;;;;20.59;100.00;100538.25;4935008;29;21122;-79
2023/09/13 08:30:46;;;;;;;11.17;10.07;;;;;;;20.81;100.00;100547.03;4949870;29;20435;-78
2023/09/13 08:33:17;;;;;;;13.17;10.00;;;;;;;21.09;96.96;100553.84;4953872;29;20977;-81
2023/09/13 08:35:47;;;;;;;8.03;7.30;;;;;;;20.85;97.13;100544.56;4946577;29;20480;-80
2023/09/13 08:38:16;;;;;;;9.53;8.63;;;;;;;20.83;97.68;100561.31;4945452;28;20525;-81
2023/09/13 08:40:48;;;;;;;9.70;8.73;;;;;;;20.95;98.02;100550.03;4960907;28;21085;-79
2023/09/13 08:43:19;;;;;;;11.47;9.23;;;;;;;21.00;98.55;100550.84;4992698;28;20775;-80
2023/09/13 08:45:52;;;;;;;9.37;8.47;;;;;;;21.09;94.72;100557.41;4994779;28;20453;-80
2023/09/13 08:48:23;;;;;;;9.63;7.43;;;;;;;21.22;94.00;100554.09;4993251;28;20405;-79
2023/09/13 08:50:53;;;;;;;7.63;6.87;;;;;;;21.57;91.63;100552.28;4996627;28;20600;-80
2023/09/13 08:53:23;;;;;;;7.60;6.80;;;;;;;21.73;89.60;100559.38;4990842;28;20832;-81
2023/09/13 08:55:54;;;;;;;6.80;6.10;;;;;;;21.89;86.95;100558.16;4995892;28;20431;-82
2023/09/13 08:58:24;;;;;;;7.50;6.70;;;;;;;22.32;84.93;100561.19;4990610;28;20976;-79
2023/09/13 09:00:55;;;;;;;7.67;6.30;;;;;;;22.69;82.78;100566.94;4989226;28;20428;-80
2023/09/13 09:03:27;;;;;;;7.50;6.80;;;;;;;22.76;83.52;100561.94;4991071;28;20471;-78
2023/09/13 09:05:58;;;;;;;7.50;6.80;;;;;;;22.92;82.77;100570.88;4989306;28;20519;-80
2023/09/13 09:08:29;;;;;;;6.47;5.83;;;;;;;23.04;81.49;100573.25;4993159;28;20426;-82
2023/09/13 09:11:00;;;;;;;6.40;5.80;;;;;;;23.14;80.63;100573.16;4993436;28;20437;-81
2023/09/13 09:13:30;;;;;;;6.20;4.90;;;;;;;22.86;82.04;100586.66;4996782;28;20569;-81
2023/09/13 09:16:02;;;;;;;5.40;4.67;;;;;;;22.43;82.80;100579.31;4999754;28;20794;-79
2023/09/13 09:18:37;;;;;;;4.87;3.77;;;;;;;21.86;85.63;100582.72;5003705;28;20422;-82
2023/09/13 09:21:09;;;;;;;4.90;4.00;;;;;;;21.48;88.57;100585.09;5003474;28;20435;-80
2023/09/13 09:23:39;;;;;;;4.57;4.17;;;;;;;21.33;91.32;100590.66;4996820;28;20425;-82
2023/09/13 09:26:09;;;;;;;5.20;4.20;;;;;;;21.27;92.42;100594.53;5007778;28;20429;-81
2023/09/13 09:28:38;;;;;;;4.67;4.27;;;;;;;21.57;91.33;100599.94;5007039;28;20835;-80
2023/09/13 09:31:10;;;;;;;7.40;4.40;;;;;;;21.77;89.99;100603.69;5001639;28;20510;-80
2023/09/13 09:33:42;;;;;;;5.20;4.57;;;;;;;22.28;87.92;100605.06;5002429;28;20470;-80
2023/09/13 09:36:13;;;;;;;4.47;4.07;;;;;;;22.66;83.71;100608.88;5008817;28;20463;-81
2023/09/13 09:38:45;;;;;;;4.30;3.90;;;;;;;22.02;84.63;100609.94;5020923;28;20525;-82
2023/09/13 09:41:14;;;;;;;4.73;4.20;;;;;;;22.12;87.27;100614.56;5009319;28;20414;-81
2023/09/13 09:43:45;;;;;;;7.53;4.00;;;;;;;22.28;85.77;100615.25;5007715;28;20441;-82
2023/09/13 09:46:14;;;;;;;5.27;4.10;;;;;;;22.33;86.33;100620.72;5008285;28;20431;-82
2023/09/13 09:48:45;;;;;;;4.80;4.40;;;;;;;22.29;84.07;100625.16;5006763;28;20467;-81
2023/09/13 09:51:14;;;;;;;4.73;4.20;;;;;;;21.88;86.48;100625.38;5009776;28;20401;-81
2023/09/13 09:53:44;;;;;;;5.30;4.37;;;;;;;21.42;88.79;100629.44;5008211;28;20478;-80
2023/09/13 09:56:14;;;;;;;6.47;4.80;;;;;;;21.65;88.97;100635.13;5010121;28;20438;-81
2023/09/13 09:58:43;;;;;;;5.10;4.60;;;;;;;21.90;88.22;100631.44;4999026;28;20421;-82
2023/09/13 10:01:16;;;;;;;5.90;5.40;;;;;;;22.06;86.98;100623.94;5019546;28;20452;-82
2023/09/13 10:03:48;;;;;;;4.47;4.07;;;;;;;22.26;85.09;100629.34;5011226;28;20419;-81
2023/09/13 10:06:22;;;;;;;6.30;4.57;;;;;;;22.62;84.26;100640.09;4980027;28;20511;-80
2023/09/13 10:08:52;;;;;;;5.87;5.13;;;;;;;22.46;84.66;100633.88;5009252;28;20419;-81
2023/09/13 10:11:23;;;;;;;8.53;5.70;;;;;;;22.33;83.34;100634.50;5004785;28;20416;-81
2023/09/13 10:13:53;;;;;;;4.87;4.43;;;;;;;22.37;84.46;100635.59;5007073;28;20461;-80
2023/09/13 10:16:31;;;;;;;4.40;4.00;;;;;;;22.26;83.89;100631.28;4997370;28;20999;-81
2023/09/13 10:19:06;;;;;;;5.80;5.20;;;;;;;22.60;83.44;100637.63;4997315;28;20439;-81
2023/09/13 10:21:37;;;;;;;8.13;4.00;;;;;;;22.66;81.96;100643.91;5001305;28;20446;-79
2023/09/13 10:24:10;;;;;;;4.70;4.30;;;;;;;22.79;81.70;100638.59;4996819;28;20425;-80
2023/09/13 10:26:41;;;;;;;5.17;3.90;;;;;;;22.75;82.67;100642.25;5009981;28;20983;-80
2023/09/13 10:29:19;;;;;;;4.90;4.50;;;;;;;22.83;82.03;100642.44;4998449;28;20473;-82
2023/09/13 10:31:51;;;;;;;5.07;4.67;;;;;;;22.78;81.92;100652.69;5009163;28;20432;-81
2023/09/13 10:34:26;;;;;;;8.27;4.67;;;;;;;22.92;82.68;100651.72;5014952;28;20468;-80
2023/09/13 10:37:05;;;;;;;5.60;5.10;;;;;;;22.69;83.41;100660.72;4997207;28;20452;-78
2023/09/13 10:39:41;;;;;;;4.97;4.57;;;;;;;22.66;84.04;100655.78;4998991;28;20438;-80
2023/09/13 10:42:13;;;;;;;4.50;4.20;;;;;;;22.97;82.85;100661.88;4999554;28;20412;-81
2023/09/13 10:44:44;;;;;;;4.30;3.90;;;;;;;23.14;80.90;100672.50;5020190;28;20433;-80
2023/09/13 10:47:17;;;;;;;4.80;4.40;;;;;;;23.02;81.99;100663.78;5023755;28;20551;-81
2023/09/13 10:49:50;;;;;;;4.50;3.60;;;;;;;23.07;82.41;100669.25;5030625;28;20446;-82
2023/09/13 10:52:21;;;;;;;4.93;4.53;;;;;;;22.79;82.54;100671.72;5023147;28;20416;-80
2023/09/13 10:54:57;;;;;;;4.83;4.43;;;;;;;22.45;85.08;100665.31;5011655;28;20484;-81
2023/09/13 10:57:30;;;;;;;5.57;5.00;;;;;;;22.82;84.13;100670.28;5003262;28;20475;-81
2023/09/13 11:00:09;;;;;;;5.40;4.27;;;;;;;23.49;81.37;100674.09;5000979;28;20452;-80
2023/09/13 11:02:39;;;;;;;4.80;4.40;;;;;;;23.63;81.05;100675.03;5004494;28;20435;-80
2023/09/13 11:05:11;;;;;;;4.40;4.00;;;;;;;24.18;78.66;100670.78;4997881;28;20438;-80
2023/09/13 11:07:46;;;;;;;5.43;4.43;;;;;;;24.48;77.01;100681.41;4996682;28;20469;-80
2023/09/13 11:10:21;;;;;;;4.27;3.93;;;;;;;24.91;73.17;100676.56;5001855;28;20439;-80
2023/09/13 11:12:50;;;;;;;3.83;3.53;;;;;;;24.49;72.57;100676.69;4994860;28;20453;-80
2023/09/13 11:15:22;;;;;;;3.40;3.10;;;;;;;23.95;75.03;100682.66;5000239;28;20401;-80
2023/09/13 11:17:55;;;;;;;5.73;3.37;;;;;;;23.53;78.27;100687.00;4992073;28;20446;-78
2023/09/13 11:20:29;;;;;;;6.40;3.40;;;;;;;23.33;78.63;100698.28;5004606;28;20437;-80
2023/09/13 11:23:10;;;;;;;4.03;3.73;;;;;;;22.86;82.12;100694.25;4993904;28;20484;-79
2023/09/13 11:26:04;;;;;;;3.60;3.30;;;;;;;23.12;82.17;100702.31;4989278;28;20429;-79
2023/09/13 11:28:48;;;;;;;7.20;3.80;;;;;;;23.04;82.71;100711.25;4987054;28;20491;-79
2023/09/13 11:31:21;;;;;;;4.70;4.07;;;;;;;22.78;84.58;100714.19;5001088;28;20439;-79
2023/09/13 11:33:58;;;;;;;5.23;3.70;;;;;;;22.72;84.75;100712.59;5012785;28;21006;-83
2023/09/13 11:36:31;;;;;;;4.80;3.70;;;;;;;22.52;85.62;100715.44;4989957;28;20469;-81
2023/09/13 11:39:06;;;;;;;6.10;3.87;;;;;;;22.22;88.77;100715.66;5003244;28;20443;-81
2023/09/13 11:41:42;;;;;;;4.20;3.90;;;;;;;22.00;90.97;100722.34;4998847;28;20437;-84
2023/09/13 11:44:14;;;;;;;3.97;3.43;;;;;;;21.91;92.80;100718.50;4996615;28;20428;-84
2023/09/13 11:47:02;;;;;;;4.07;3.73;;;;;;;21.74;94.92;100734.50;5000243;28;20522;-84